createdAt,value
2018-06-25T00:01:49.956Z,58.95
2018-06-25T00:04:19.904Z,59.87
2018-06-25T00:06:49.774Z,59.61
2018-06-25T00:09:19.668Z,59.90
2018-06-25T00:11:49.528Z,59.32
2018-06-25T00:14:19.352Z,59.74
2018-06-25T00:16:49.196Z,60.23
2018-06-25T00:19:19.092Z,59.73
2018-06-25T00:21:49.007Z,59.93
2018-06-25T00:24:18.810Z,60.30
2018-06-25T00:26:48.659Z,60.33
2018-06-25T00:29:18.569Z,60.11
2018-06-25T00:31:48.392Z,60.68
2018-06-25T00:34:18.262Z,60.40
2018-06-25T00:36:48.148Z,60.02
2018-06-25T00:39:18.029Z,60.35
2018-06-25T00:41:47.836Z,59.76
2018-06-25T00:44:17.700Z,60.09
2018-06-25T00:46:47.560Z,60.15
2018-06-25T00:49:17.396Z,60.11
2018-06-25T00:51:47.200Z,59.86
2018-06-25T00:54:17.055Z,59.67
2018-06-25T00:56:46.915Z,60.37
2018-06-25T00:59:27.700Z,59.99
2018-06-25T01:01:57.511Z,59.60
2018-06-25T01:04:27.384Z,59.62
2018-06-25T01:06:57.272Z,59.94
2018-06-25T01:09:27.296Z,60.06
2018-06-25T01:11:57.268Z,59.82
2018-06-25T01:14:27.117Z,59.72
2018-06-25T01:16:56.989Z,60.07
2018-06-25T01:19:26.792Z,60.18
2018-06-25T01:21:56.700Z,59.72
2018-06-25T01:24:26.568Z,60.11
2018-06-25T01:26:56.455Z,60.24
2018-06-25T01:29:26.331Z,59.55
2018-06-25T01:31:56.352Z,59.92
2018-06-25T01:34:26.349Z,60.05
2018-06-25T01:36:56.186Z,59.99
2018-06-25T01:39:25.973Z,60.33
2018-06-25T01:41:55.828Z,60.25
2018-06-25T01:44:25.660Z,60.67
2018-06-25T01:46:55.512Z,60.13
2018-06-25T01:49:25.477Z,60.41
2018-06-25T01:51:55.404Z,60.79
2018-06-25T01:54:25.384Z,60.97
2018-06-25T01:56:55.205Z,61.56
2018-06-25T01:59:25.050Z,61.57
2018-06-25T02:01:54.904Z,61.79
2018-06-25T02:04:24.811Z,61.52
2018-06-25T02:06:54.657Z,62.28
2018-06-25T02:09:24.466Z,61.94
2018-06-25T02:11:54.335Z,62.24
2018-06-25T02:14:24.176Z,62.07
2018-06-25T02:16:54.060Z,62.29
2018-06-25T02:19:23.888Z,62.24
2018-06-25T02:21:53.781Z,61.93
2018-06-25T02:24:23.654Z,61.76
2018-06-25T02:26:53.594Z,61.94
2018-06-25T02:29:23.449Z,62.39
2018-06-25T02:31:53.248Z,62.31
2018-06-25T02:34:23.084Z,62.68
2018-06-25T02:36:52.971Z,62.00
2018-06-25T02:39:22.797Z,62.17
2018-06-25T02:41:52.657Z,62.02
2018-06-25T02:44:22.489Z,62.51
2018-06-25T02:46:52.435Z,62.22
2018-06-25T02:49:22.261Z,62.26
2018-06-25T02:51:52.174Z,62.15
2018-06-25T02:54:22.024Z,61.45
2018-06-25T02:56:52.208Z,62.06
2018-06-25T02:59:22.100Z,61.83
2018-06-25T03:01:52.129Z,62.14
2018-06-25T03:04:21.972Z,61.90
2018-06-25T03:06:51.835Z,62.03
2018-06-25T03:09:21.709Z,61.99
2018-06-25T03:11:51.524Z,61.93
2018-06-25T03:14:22.676Z,61.78
2018-06-25T03:16:52.583Z,61.71
2018-06-25T03:19:22.412Z,62.08
2018-06-25T03:21:52.325Z,62.46
2018-06-25T03:24:22.254Z,62.06
2018-06-25T03:26:52.139Z,62.34
2018-06-25T03:29:21.920Z,63.20
2018-06-25T03:31:51.936Z,63.31
2018-06-25T03:34:21.745Z,62.39
2018-06-25T03:36:51.581Z,62.77
2018-06-25T03:39:21.425Z,62.56
2018-06-25T03:41:51.259Z,62.19
2018-06-25T03:44:21.112Z,61.95
2018-06-25T03:46:50.960Z,61.79
2018-06-25T03:49:20.792Z,61.98
2018-06-25T03:51:50.634Z,61.98
2018-06-25T03:54:20.492Z,61.29
2018-06-25T03:56:50.344Z,61.07
2018-06-25T03:59:20.217Z,61.45
2018-06-25T04:01:50.050Z,60.75
2018-06-25T04:04:19.956Z,60.30
2018-06-25T04:06:49.785Z,60.57
2018-06-25T04:09:19.640Z,60.73
2018-06-25T04:11:49.486Z,60.59
2018-06-25T04:14:19.301Z,60.64
2018-06-25T04:16:49.179Z,60.62
2018-06-25T04:19:18.992Z,61.20
2018-06-25T04:21:49.056Z,60.29
2018-06-25T04:24:18.896Z,60.88
2018-06-25T04:26:48.741Z,59.99
2018-06-25T04:29:18.580Z,60.13
2018-06-25T04:31:48.464Z,60.06
2018-06-25T04:34:18.328Z,59.86
2018-06-25T04:36:48.236Z,58.91
2018-06-25T04:39:18.063Z,59.17
2018-06-25T04:41:47.922Z,58.52
2018-06-25T04:44:17.768Z,58.60
2018-06-25T04:46:47.664Z,57.70
2018-06-25T04:49:17.480Z,57.02
2018-06-25T04:51:47.396Z,55.68
2018-06-25T04:54:17.297Z,55.87
2018-06-25T04:56:47.300Z,55.44
2018-06-25T04:59:17.094Z,55.63
2018-06-25T05:01:46.953Z,54.85
2018-06-25T05:04:16.842Z,55.36
2018-06-25T05:06:46.793Z,55.17
2018-06-25T05:09:16.593Z,53.42
2018-06-25T05:11:46.452Z,52.81
2018-06-25T05:14:16.265Z,52.38
2018-06-25T05:16:46.116Z,52.75
2018-06-25T05:19:15.988Z,51.21
2018-06-25T05:21:45.880Z,50.65
2018-06-25T05:24:15.697Z,49.93
2018-06-25T05:26:45.583Z,50.70
2018-06-25T05:29:15.519Z,49.47
2018-06-25T05:31:45.436Z,49.51
2018-06-25T05:34:15.299Z,47.73
2018-06-25T05:36:45.172Z,47.82
2018-06-25T05:39:15.074Z,47.97
2018-06-25T05:41:45.744Z,47.22
2018-06-25T05:44:15.589Z,47.70
2018-06-25T05:46:47.252Z,45.53
2018-06-25T05:49:18.225Z,44.31
2018-06-25T05:51:48.112Z,44.52
2018-06-25T05:54:17.998Z,44.22
2018-06-25T05:56:47.861Z,45.25
2018-06-25T05:59:17.748Z,45.47
2018-06-25T06:01:47.644Z,44.19
2018-06-25T06:04:17.638Z,42.89
2018-06-25T06:06:47.706Z,43.30
2018-06-25T06:09:17.589Z,42.41
2018-06-25T06:11:47.460Z,43.55
2018-06-25T06:14:18.337Z,43.32
2018-06-25T06:16:48.364Z,43.50
2018-06-25T06:19:18.240Z,44.33
2018-06-25T06:21:48.184Z,43.12
2018-06-25T06:24:18.031Z,42.88
2018-06-25T06:26:47.880Z,42.36
2018-06-25T06:29:17.732Z,43.39
2018-06-25T06:31:47.617Z,41.98
2018-06-25T06:34:17.492Z,41.91
2018-06-25T06:36:47.509Z,41.52
2018-06-25T06:39:17.465Z,40.05
2018-06-25T06:41:47.378Z,40.00
2018-06-25T06:44:17.288Z,39.70
2018-06-25T06:46:47.212Z,39.51
2018-06-25T06:49:17.300Z,40.21
2018-06-25T06:51:48.112Z,40.29
2018-06-25T06:54:18.004Z,41.25
2018-06-25T06:56:47.966Z,40.63
2018-06-25T06:59:17.890Z,42.68
2018-06-25T07:01:47.868Z,41.69
2018-06-25T07:04:17.748Z,41.09
2018-06-25T07:06:47.680Z,40.77
2018-06-25T07:09:17.569Z,39.43
2018-06-25T07:11:47.503Z,39.68
2018-06-25T07:14:17.367Z,39.57
2018-06-25T07:16:47.273Z,37.84
2018-06-25T07:19:17.164Z,37.91
2018-06-25T07:21:47.029Z,37.41
2018-06-25T07:24:16.909Z,37.98
2018-06-25T07:26:46.825Z,38.88
2018-06-25T07:29:16.785Z,39.70
2018-06-25T07:31:46.577Z,39.09
2018-06-25T07:34:16.460Z,38.37
2018-06-25T07:36:46.395Z,39.96
2018-06-25T07:39:16.340Z,39.58
2018-06-25T07:41:46.416Z,38.96
2018-06-25T07:44:16.428Z,38.63
2018-06-25T07:46:46.469Z,38.56
2018-06-25T07:49:16.430Z,38.88
2018-06-25T07:51:46.252Z,39.59
2018-06-25T07:54:16.180Z,39.38
2018-06-25T07:56:46.077Z,38.94
2018-06-25T07:59:15.891Z,39.09
2018-06-25T08:01:45.819Z,37.68
2018-06-25T08:04:16.164Z,37.64
2018-06-25T08:06:46.180Z,36.70
2018-06-25T08:09:16.188Z,36.76
2018-06-25T08:11:46.110Z,37.93
2018-06-25T08:14:16.825Z,38.04
2018-06-25T08:16:46.978Z,38.96
2018-06-25T08:19:16.760Z,38.05
2018-06-25T08:21:46.662Z,36.84
2018-06-25T08:24:16.617Z,36.31
2018-06-25T08:26:46.567Z,36.25
2018-06-25T08:29:16.552Z,37.10
2018-06-25T08:31:46.524Z,35.93
2018-06-25T08:34:16.479Z,35.85
2018-06-25T08:36:46.364Z,35.35
2018-06-25T08:39:16.305Z,35.64
2018-06-25T08:41:46.317Z,34.73
2018-06-25T08:44:16.220Z,35.48
2018-06-25T08:46:46.240Z,34.72
2018-06-25T08:49:16.113Z,34.17
2018-06-25T08:51:46.127Z,35.32
2018-06-25T08:54:16.069Z,33.71
2018-06-25T08:56:45.931Z,33.75
2018-06-25T08:59:15.897Z,34.78
2018-06-25T09:01:45.866Z,34.92
2018-06-25T09:04:15.840Z,34.38
2018-06-25T09:06:45.708Z,34.50
2018-06-25T09:09:15.595Z,34.22
2018-06-25T09:11:45.445Z,32.87
2018-06-25T09:14:15.320Z,32.17
2018-06-25T09:16:45.210Z,31.90
2018-06-25T09:19:15.072Z,32.74
2018-06-25T09:21:44.949Z,31.89
2018-06-25T09:24:14.824Z,33.21
2018-06-25T09:26:44.728Z,31.68
2018-06-25T09:29:14.653Z,31.00
2018-06-25T09:31:44.544Z,30.63
2018-06-25T09:34:19.445Z,31.54
2018-06-25T09:36:49.396Z,31.01
2018-06-25T09:39:19.396Z,30.53
2018-06-25T09:41:49.333Z,30.87
2018-06-25T09:44:19.283Z,30.09
2018-06-25T09:46:49.164Z,29.28
2018-06-25T09:49:19.145Z,29.65
2018-06-25T09:51:49.132Z,30.45
2018-06-25T09:54:18.968Z,29.32
2018-06-25T09:56:48.894Z,30.10
2018-06-25T09:59:18.879Z,30.82
2018-06-25T10:01:48.787Z,29.06
2018-06-25T10:04:18.708Z,28.94
2018-06-25T10:06:48.620Z,28.72
2018-06-25T10:09:18.475Z,28.97
2018-06-25T10:11:48.348Z,29.35
2018-06-25T10:14:18.257Z,27.96
2018-06-25T10:16:48.166Z,28.87
2018-06-25T10:19:18.017Z,27.67
2018-06-25T10:21:47.984Z,28.52
2018-06-25T10:24:17.853Z,28.94
2018-06-25T10:26:47.740Z,28.76
2018-06-25T10:29:17.688Z,27.26
2018-06-25T10:31:47.516Z,27.79
2018-06-25T10:34:17.457Z,27.89
2018-06-25T10:36:47.387Z,27.01
2018-06-25T10:39:17.359Z,27.96
2018-06-25T10:41:47.286Z,26.99
2018-06-25T10:44:17.227Z,27.20
2018-06-25T10:46:47.060Z,27.15
2018-06-25T10:49:17.076Z,26.71
2018-06-25T10:51:47.020Z,26.79
2018-06-25T10:54:16.965Z,26.64
2018-06-25T10:56:46.864Z,26.85
2018-06-25T10:59:16.733Z,27.21
2018-06-25T11:01:46.585Z,27.92
2018-06-25T11:04:16.595Z,27.80
2018-06-25T11:06:46.573Z,27.11
2018-06-25T11:09:16.661Z,27.58
2018-06-25T11:11:46.592Z,25.67
2018-06-25T11:14:16.461Z,25.84
2018-06-25T11:16:46.384Z,25.17
2018-06-25T11:19:16.230Z,25.99
2018-06-25T11:21:46.149Z,25.75
2018-06-25T11:24:16.329Z,25.67
2018-06-25T11:26:46.347Z,25.34
2018-06-25T11:29:16.357Z,25.31
2018-06-25T11:31:46.274Z,25.41
2018-06-25T11:34:16.260Z,25.63
2018-06-25T11:36:46.108Z,24.50
2018-06-25T11:39:15.958Z,24.89
2018-06-25T11:41:45.900Z,25.71
2018-06-25T11:44:15.790Z,26.87
2018-06-25T11:46:45.724Z,26.39
2018-06-25T11:49:15.556Z,25.84
2018-06-25T11:51:45.486Z,25.85
2018-06-25T11:54:15.308Z,25.62
2018-06-25T11:56:45.308Z,26.04
2018-06-25T11:59:15.176Z,26.24
2018-06-25T12:01:45.122Z,25.73
2018-06-25T12:04:15.307Z,24.16
2018-06-25T12:06:45.428Z,24.97
2018-06-25T12:09:15.453Z,25.11
2018-06-25T12:11:45.276Z,24.67
2018-06-25T12:14:15.166Z,25.05
2018-06-25T12:16:45.104Z,25.07
2018-06-25T12:19:15.034Z,25.32
2018-06-25T12:21:44.880Z,24.95
2018-06-25T12:24:14.736Z,23.62
2018-06-25T12:26:44.717Z,23.53
2018-06-25T12:29:14.765Z,23.45
2018-06-25T12:31:44.697Z,23.86
2018-06-25T12:34:14.614Z,24.79
2018-06-25T12:36:44.533Z,22.18
2018-06-25T12:39:14.532Z,22.22
2018-06-25T12:41:44.556Z,21.93
2018-06-25T12:44:14.409Z,22.23
2018-06-25T12:46:44.319Z,21.09
2018-06-25T12:49:14.245Z,21.46
2018-06-25T12:51:44.156Z,22.44
2018-06-25T12:54:14.088Z,22.56
2018-06-25T12:56:43.984Z,22.50
2018-06-25T12:59:13.922Z,22.10
2018-06-25T13:01:44.020Z,22.40
2018-06-25T13:04:13.956Z,22.72
2018-06-25T13:06:43.990Z,21.41
2018-06-25T13:09:14.218Z,21.59
2018-06-25T13:11:44.080Z,21.95
2018-06-25T13:14:13.958Z,21.36
2018-06-25T13:16:43.805Z,21.54
2018-06-25T13:19:13.722Z,21.78
2018-06-25T13:21:43.560Z,22.23
2018-06-25T13:24:14.112Z,22.97
2018-06-25T13:26:43.972Z,22.14
2018-06-25T13:29:13.983Z,22.19
2018-06-25T13:31:44.025Z,21.69
2018-06-25T13:34:14.091Z,22.75
2018-06-25T13:36:44.064Z,22.33
2018-06-25T13:39:13.987Z,22.67
2018-06-25T13:41:43.908Z,22.49
2018-06-25T13:44:13.731Z,22.59
2018-06-25T13:46:43.692Z,21.89
2018-06-25T13:49:13.600Z,21.66
2018-06-25T13:51:43.521Z,22.97
2018-06-25T13:54:13.951Z,21.31
2018-06-25T13:56:43.944Z,22.68
2018-06-25T13:59:13.961Z,23.14
2018-06-25T14:01:43.932Z,23.49
2018-06-25T14:04:13.877Z,23.44
2018-06-25T14:06:44.968Z,23.98
2018-06-25T14:09:14.892Z,23.59
2018-06-25T14:11:44.792Z,22.97
2018-06-25T14:14:14.658Z,23.84
2018-06-25T14:16:44.778Z,24.50
2018-06-25T14:19:14.609Z,24.37
2018-06-25T14:21:44.469Z,24.32
2018-06-25T14:24:19.564Z,24.72
2018-06-25T14:26:49.475Z,24.05
2018-06-25T14:29:24.335Z,24.79
2018-06-25T14:31:58.396Z,24.76
2018-06-25T14:34:28.230Z,24.65
2018-06-25T14:36:58.116Z,24.83
2018-06-25T14:39:27.980Z,24.35
2018-06-25T14:41:57.868Z,23.94
2018-06-25T14:44:27.753Z,24.16
2018-06-25T14:46:57.621Z,23.90
2018-06-25T14:49:27.523Z,23.32
2018-06-25T14:51:57.403Z,23.28
2018-06-25T14:54:27.856Z,24.57
2018-06-25T14:56:57.708Z,25.06
2018-06-25T14:59:27.562Z,25.86
2018-06-25T15:01:57.402Z,26.16
2018-06-25T15:04:27.257Z,25.52
2018-06-25T15:06:57.092Z,26.00
2018-06-25T15:09:26.956Z,25.14
2018-06-25T15:11:56.798Z,26.70
2018-06-25T15:14:26.684Z,25.97
2018-06-25T15:16:56.504Z,26.16
2018-06-25T15:19:26.379Z,25.79
2018-06-25T15:21:56.278Z,25.77
2018-06-25T15:24:26.173Z,26.58
2018-06-25T15:26:56.041Z,27.04
2018-06-25T15:29:25.870Z,27.69
2018-06-25T15:31:55.777Z,27.89
2018-06-25T15:34:25.650Z,27.53
2018-06-25T15:36:55.536Z,28.08
2018-06-25T15:39:25.384Z,28.22
2018-06-25T15:41:55.284Z,28.31
2018-06-25T15:44:25.122Z,29.24
2018-06-25T15:46:54.968Z,28.44
2018-06-25T15:49:24.780Z,27.85
2018-06-25T15:51:54.580Z,26.97
2018-06-25T15:54:24.452Z,27.14
2018-06-25T15:56:54.252Z,27.04
2018-06-25T15:59:24.181Z,27.51
2018-06-25T16:01:54.023Z,27.39
2018-06-25T16:04:23.864Z,27.25
2018-06-25T16:06:53.701Z,27.16
2018-06-25T16:09:23.568Z,27.33
2018-06-25T16:11:53.553Z,28.03
2018-06-25T16:14:23.425Z,27.67
2018-06-25T16:16:53.295Z,27.67
2018-06-25T16:19:23.115Z,28.54
2018-06-25T16:21:52.973Z,28.05
2018-06-25T16:24:23.100Z,27.75
2018-06-25T16:26:53.124Z,28.62
2018-06-25T16:29:23.071Z,28.33
2018-06-25T16:31:53.372Z,28.65
2018-06-25T16:34:23.236Z,28.98
2018-06-25T16:36:53.144Z,29.29
2018-06-25T16:39:22.939Z,28.97
2018-06-25T16:41:52.772Z,29.56
2018-06-25T16:44:22.652Z,30.26
2018-06-25T16:46:52.476Z,30.26
2018-06-25T16:49:22.309Z,29.95
2018-06-25T16:51:52.133Z,30.60
2018-06-25T16:54:21.914Z,30.35
2018-06-25T16:56:51.805Z,30.17
2018-06-25T16:59:21.753Z,30.58
2018-06-25T17:01:51.688Z,30.30
2018-06-25T17:04:21.484Z,31.08
2018-06-25T17:06:51.411Z,30.94
2018-06-25T17:09:21.232Z,30.83
2018-06-25T17:11:51.102Z,31.83
2018-06-25T17:14:21.048Z,31.65
2018-06-25T17:16:50.933Z,31.99
2018-06-25T17:19:20.800Z,32.49
2018-06-25T17:21:50.649Z,32.19
2018-06-25T17:24:20.476Z,31.86
2018-06-25T17:26:50.367Z,32.65
2018-06-25T17:29:20.243Z,32.84
2018-06-25T17:31:50.125Z,33.69
2018-06-25T17:34:19.922Z,33.91
2018-06-25T17:36:49.784Z,33.98
2018-06-25T17:39:19.672Z,34.66
2018-06-25T17:41:49.472Z,34.27
2018-06-25T17:44:19.355Z,35.35
2018-06-25T17:46:49.286Z,35.28
2018-06-25T17:49:19.096Z,35.99
2018-06-25T17:51:48.981Z,36.50
2018-06-25T17:54:18.910Z,36.28
2018-06-25T17:56:48.733Z,35.84
2018-06-25T17:59:18.580Z,35.40
2018-06-25T18:01:48.445Z,35.63
2018-06-25T18:04:18.293Z,35.89
2018-06-25T18:06:48.409Z,35.38
2018-06-25T18:09:18.315Z,34.45
2018-06-25T18:11:48.149Z,34.82
2018-06-25T18:14:18.007Z,34.68
2018-06-25T18:16:47.855Z,35.03
2018-06-25T18:19:17.746Z,35.03
2018-06-25T18:21:47.595Z,34.81
2018-06-25T18:24:17.468Z,34.81
2018-06-25T18:26:47.340Z,35.57
2018-06-25T18:29:17.148Z,35.57
2018-06-25T18:31:47.024Z,35.39
2018-06-25T18:34:16.904Z,35.21
2018-06-25T18:36:47.099Z,35.33
2018-06-25T18:39:16.900Z,36.04
2018-06-25T18:41:46.755Z,36.24
2018-06-25T18:44:16.607Z,35.99
2018-06-25T18:46:46.452Z,36.04
2018-06-25T18:49:16.324Z,36.63
2018-06-25T18:51:46.115Z,36.59
2018-06-25T18:54:15.971Z,37.36
2018-06-25T18:56:45.800Z,37.71
2018-06-25T18:59:15.654Z,37.07
2018-06-25T19:01:45.550Z,37.46
2018-06-25T19:04:15.481Z,37.07
2018-06-25T19:06:45.364Z,37.09
2018-06-25T19:09:15.169Z,37.75
2018-06-25T19:11:45.052Z,37.93
2018-06-25T19:14:14.837Z,38.03
2018-06-25T19:16:44.700Z,38.13
2018-06-25T19:19:14.531Z,38.38
2018-06-25T19:21:44.419Z,38.94
2018-06-25T19:24:14.965Z,38.83
2018-06-25T19:26:44.756Z,38.73
2018-06-25T19:29:14.612Z,39.27
2018-06-25T19:31:44.420Z,39.93
2018-06-25T19:34:14.290Z,39.58
2018-06-25T19:36:44.089Z,40.37
2018-06-25T19:39:14.536Z,40.22
2018-06-25T19:41:44.404Z,40.24
2018-06-25T19:44:14.240Z,40.54
2018-06-25T19:46:44.133Z,41.49
2018-06-25T19:49:13.952Z,40.88
2018-06-25T19:51:43.816Z,40.99
2018-06-25T19:54:14.176Z,41.78
2018-06-25T19:56:43.993Z,41.88
2018-06-25T19:59:13.863Z,41.13
2018-06-25T20:01:43.674Z,41.53
2018-06-25T20:04:13.497Z,41.33
2018-06-25T20:06:43.372Z,41.80
2018-06-25T20:09:13.843Z,42.01
2018-06-25T20:11:43.705Z,41.57
2018-06-25T20:14:13.562Z,41.90
2018-06-25T20:16:43.501Z,41.19
2018-06-25T20:19:13.275Z,41.75
2018-06-25T20:21:43.146Z,42.12
2018-06-25T20:24:13.001Z,41.89
2018-06-25T20:26:42.828Z,42.30
2018-06-25T20:29:13.065Z,42.46
2018-06-25T20:31:42.903Z,42.76
2018-06-25T20:34:12.968Z,43.23
2018-06-25T20:36:42.844Z,42.88
2018-06-25T20:39:13.098Z,43.38
2018-06-25T20:41:42.950Z,43.74
2018-06-25T20:44:13.484Z,44.52
2018-06-25T20:46:43.385Z,44.16
2018-06-25T20:49:13.246Z,44.33
2018-06-25T20:51:43.133Z,43.81
2018-06-25T20:54:12.966Z,44.54
2018-06-25T20:56:42.826Z,44.60
2018-06-25T20:59:12.725Z,44.81
2018-06-25T21:01:42.563Z,44.56
2018-06-25T21:04:12.462Z,44.90
2018-06-25T21:06:42.322Z,45.00
2018-06-25T21:09:13.020Z,45.25
2018-06-25T21:11:43.364Z,45.32
2018-06-25T21:14:13.208Z,45.21
2018-06-25T21:16:43.147Z,45.60
2018-06-25T21:19:12.999Z,45.66
2018-06-25T21:21:42.856Z,46.02
2018-06-25T21:24:12.733Z,46.25
2018-06-25T21:26:42.568Z,46.17
2018-06-25T21:29:12.385Z,46.94
2018-06-25T21:31:42.225Z,46.50
2018-06-25T21:34:12.832Z,46.62
2018-06-25T21:36:42.672Z,46.65
2018-06-25T21:39:12.556Z,46.69
2018-06-25T21:41:42.448Z,47.28
2018-06-25T21:44:12.288Z,48.29
2018-06-25T21:46:42.075Z,47.83
2018-06-25T21:49:11.903Z,48.30
2018-06-25T21:51:41.746Z,48.59
2018-06-25T21:54:11.543Z,48.16
2018-06-25T21:56:41.370Z,48.17
2018-06-25T21:59:11.246Z,48.21
2018-06-25T22:01:41.235Z,49.04
2018-06-25T22:04:11.103Z,48.46
2018-06-25T22:06:40.952Z,48.74
2018-06-25T22:09:10.829Z,48.98
2018-06-25T22:11:40.728Z,48.58
2018-06-25T22:14:10.919Z,49.43
2018-06-25T22:16:40.848Z,49.80
2018-06-25T22:19:10.689Z,49.09
2018-06-25T22:21:41.377Z,48.94
2018-06-25T22:24:11.213Z,49.67
2018-06-25T22:26:41.076Z,49.51
2018-06-25T22:29:10.932Z,49.62
2018-06-25T22:31:40.732Z,49.04
2018-06-25T22:34:10.576Z,48.77
2018-06-25T22:36:40.388Z,48.86
2018-06-25T22:39:11.904Z,49.11
2018-06-25T22:41:42.216Z,49.21
2018-06-25T22:44:13.372Z,49.17
2018-06-25T22:46:44.096Z,49.00
2018-06-25T22:49:14.658Z,49.33
2018-06-25T22:51:44.474Z,48.94
2018-06-25T22:54:14.316Z,49.21
2018-06-25T22:56:44.196Z,49.24
2018-06-25T22:59:14.055Z,49.38
2018-06-25T23:01:43.886Z,49.80
2018-06-25T23:04:14.593Z,49.66
2018-06-25T23:06:44.436Z,50.31
2018-06-25T23:09:14.423Z,49.64
2018-06-25T23:11:44.260Z,50.02
2018-06-25T23:14:14.057Z,50.27
2018-06-25T23:16:43.882Z,50.60
2018-06-25T23:19:14.244Z,50.36
2018-06-25T23:21:44.041Z,50.52
2018-06-25T23:24:13.883Z,51.13
2018-06-25T23:26:43.724Z,51.63
2018-06-25T23:29:13.560Z,50.98
2018-06-25T23:31:43.373Z,51.73
2018-06-25T23:34:13.219Z,51.65
2018-06-25T23:36:43.033Z,51.16
2018-06-25T23:39:13.268Z,51.77
2018-06-25T23:41:43.204Z,52.47
2018-06-25T23:44:13.061Z,52.16
2018-06-25T23:46:42.928Z,52.14
2018-06-25T23:49:12.757Z,52.12
2018-06-25T23:51:42.611Z,52.15
2018-06-25T23:54:12.496Z,52.37
2018-06-25T23:56:42.336Z,52.37
2018-06-25T23:59:12.171Z,53.41
